Terminal Aerodrome Forecast
Issued by NWS

Home | Current Version | Previous Version | Text Only | Print | Product List | Glossary On
Versions: 1 2 3 4 5 6 7 8 9 10 11 12 13 14 15
929
FTUS46 KMTR 041720
TAFSTS
TAF
KSTS 041720Z 0418/0518 30004KT P6SM BKN200
     FM042100 24005KT P6SM BKN150
     FM050400 30007KT P6SM BKN010
     FM050700 VRB03KT 1/4SM FG OVC001
     FM051600 33008KT P6SM BKN050=

USA.gov is the U.S. government's official web portal to all federal, state and local government web resources and services.